createdAt,value
2024-02-01T00:00:38.089Z,6.93
2024-02-01T00:03:04.922Z,6.82
2024-02-01T00:05:31.715Z,8.43
2024-02-01T00:07:58.606Z,5.88
2024-02-01T00:10:25.289Z,8.02
2024-02-01T00:12:51.931Z,7.68
2024-02-01T00:15:18.642Z,7.47
2024-02-01T00:17:45.404Z,6.15
2024-02-01T00:20:12.490Z,7.20
2024-02-01T00:22:39.186Z,6.35
2024-02-01T00:25:06.320Z,7.20
2024-02-01T00:27:33.008Z,9.27
2024-02-01T00:30:01.456Z,7.35
2024-02-01T00:32:28.176Z,6.72
2024-02-01T00:34:54.942Z,6.68
2024-02-01T00:37:21.654Z,8.90
2024-02-01T00:39:48.425Z,5.90
2024-02-01T00:42:15.185Z,9.48
2024-02-01T00:44:42.150Z,9.88
2024-02-01T00:47:08.996Z,6.80
2024-02-01T00:49:36.312Z,6.65
2024-02-01T00:52:03.734Z,8.35
2024-02-01T00:54:31.439Z,7.30
2024-02-01T00:56:58.384Z,7.72
2024-02-01T00:59:25.369Z,8.77
2024-02-01T01:01:52.137Z,7.40
2024-02-01T01:04:19.007Z,8.60
2024-02-01T01:06:45.717Z,6.40
2024-02-01T01:09:12.465Z,9.30
2024-02-01T01:11:39.331Z,8.48
2024-02-01T01:14:06.524Z,6.25
2024-02-01T01:16:33.540Z,7.72
2024-02-01T01:19:00.527Z,7.80
2024-02-01T01:21:29.147Z,7.55
2024-02-01T01:23:55.905Z,7.70
2024-02-01T01:26:26.986Z,7.65
2024-02-01T01:28:54.835Z,7.55
2024-02-01T01:31:24.555Z,9.40
2024-02-01T01:33:51.384Z,5.70
2024-02-01T01:36:18.197Z,7.90
2024-02-01T01:38:44.901Z,8.45
2024-02-01T01:41:11.748Z,5.82
2024-02-01T01:43:38.589Z,6.35
2024-02-01T01:46:06.094Z,6.13
2024-02-01T01:48:34.643Z,7.35
2024-02-01T01:51:02.381Z,5.85
2024-02-01T01:53:32.072Z,6.00
2024-02-01T01:55:58.773Z,5.35
2024-02-01T01:58:28.920Z,5.38
2024-02-01T02:00:58.252Z,5.63
2024-02-01T02:03:28.670Z,6.40
2024-02-01T02:05:58.800Z,6.97
2024-02-01T02:08:25.859Z,6.57
2024-02-01T02:10:53.770Z,7.32
2024-02-01T02:13:20.616Z,5.60
2024-02-01T02:15:47.827Z,4.95
2024-02-01T02:18:14.835Z,7.28
2024-02-01T02:20:45.648Z,6.32
2024-02-01T02:23:12.932Z,5.35
2024-02-01T02:25:41.457Z,6.20
2024-02-01T02:28:08.153Z,3.80
2024-02-01T02:30:34.883Z,4.30
2024-02-01T02:33:02.932Z,6.72
2024-02-01T02:35:29.948Z,7.95
2024-02-01T02:37:59.744Z,8.15
2024-02-01T02:40:26.442Z,6.07
2024-02-01T02:42:53.111Z,5.57
2024-02-01T02:45:20.851Z,7.82
2024-02-01T02:47:48.643Z,6.43
2024-02-01T02:50:15.889Z,4.38
2024-02-01T02:52:44.676Z,7.90
2024-02-01T02:55:12.074Z,6.40
2024-02-01T02:57:39.163Z,5.75
2024-02-01T03:00:07.599Z,5.50
2024-02-01T03:02:34.927Z,5.45
2024-02-01T03:05:02.741Z,5.95
2024-02-01T03:07:29.857Z,6.22
2024-02-01T03:09:56.620Z,4.88
2024-02-01T03:12:23.312Z,7.70
2024-02-01T03:14:51.787Z,5.65
2024-02-01T03:17:19.614Z,4.70
2024-02-01T03:19:51.418Z,4.35
2024-02-01T03:22:21.942Z,5.80
2024-02-01T03:24:59.970Z,4.22
2024-02-01T03:27:27.099Z,4.72
2024-02-01T03:29:53.900Z,4.28
2024-02-01T03:32:20.760Z,3.42
2024-02-01T03:34:47.583Z,3.58
2024-02-01T03:37:16.373Z,3.28
2024-02-01T03:39:43.684Z,3.75
2024-02-01T03:42:10.969Z,5.97
2024-02-01T03:44:40.655Z,4.80
2024-02-01T03:47:11.187Z,4.65
2024-02-01T03:49:41.053Z,4.38
2024-02-01T03:52:11.123Z,3.50
2024-02-01T03:54:39.195Z,6.93
2024-02-01T03:57:06.639Z,7.90
2024-02-01T03:59:33.846Z,4.88
2024-02-01T04:02:05.169Z,6.50
2024-02-01T04:04:32.716Z,6.72
2024-02-01T04:06:59.867Z,5.07
2024-02-01T04:09:28.859Z,4.80
2024-02-01T04:11:56.045Z,9.30
2024-02-01T04:14:23.294Z,10.65
2024-02-01T04:16:50.014Z,8.63
2024-02-01T04:19:16.954Z,7.30
2024-02-01T04:21:47.920Z,8.13
2024-02-01T04:24:15.048Z,5.85
2024-02-01T04:26:41.916Z,5.30
2024-02-01T04:29:11.242Z,7.32
2024-02-01T04:31:38.436Z,7.18
2024-02-01T04:34:05.550Z,5.97
2024-02-01T04:36:32.681Z,7.88
2024-02-01T04:38:59.365Z,5.60
2024-02-01T04:41:28.072Z,7.70
2024-02-01T04:43:56.391Z,8.30
2024-02-01T04:46:25.945Z,5.47
2024-02-01T04:48:53.120Z,4.55
2024-02-01T04:51:19.987Z,6.78
2024-02-01T04:53:46.749Z,7.03
2024-02-01T04:56:15.894Z,8.48
2024-02-01T04:58:43.048Z,9.15
2024-02-01T05:01:11.534Z,5.47
2024-02-01T05:03:39.358Z,7.22
2024-02-01T05:06:09.651Z,8.70
2024-02-01T05:08:36.962Z,7.28
2024-02-01T05:11:03.786Z,6.65
2024-02-01T05:13:31.773Z,9.75
2024-02-01T05:15:59.685Z,9.10
2024-02-01T05:18:27.876Z,9.07
2024-02-01T05:20:54.793Z,8.15
2024-02-01T05:23:21.621Z,9.63
2024-02-01T05:25:48.273Z,6.85
2024-02-01T05:28:14.940Z,11.18
2024-02-01T05:30:45.661Z,8.05
2024-02-01T05:33:13.007Z,6.60
2024-02-01T05:35:39.906Z,8.73
2024-02-01T05:38:09.269Z,10.13
2024-02-01T05:40:38.923Z,10.90
2024-02-01T05:43:06.001Z,11.40
2024-02-01T05:45:35.156Z,8.75
2024-02-01T05:48:02.178Z,12.52
2024-02-01T05:50:29.237Z,11.27
2024-02-01T05:52:56.817Z,10.10
2024-02-01T05:55:23.584Z,10.20
2024-02-01T05:57:50.337Z,10.93
2024-02-01T06:00:23.894Z,9.00
2024-02-01T06:02:52.411Z,10.83
2024-02-01T06:05:20.721Z,10.27
2024-02-01T06:07:47.377Z,9.52
2024-02-01T06:10:14.575Z,8.70
2024-02-01T06:12:41.237Z,8.70
2024-02-01T06:15:08.738Z,7.22
2024-02-01T06:17:36.193Z,8.38
2024-02-01T06:20:04.296Z,9.63
2024-02-01T06:22:32.291Z,9.00
2024-02-01T06:24:59.178Z,9.07
2024-02-01T06:27:25.860Z,13.68
2024-02-01T06:29:52.841Z,9.23
2024-02-01T06:32:22.789Z,11.25
2024-02-01T06:34:59.946Z,11.80
2024-02-01T06:37:31.075Z,10.20
2024-02-01T06:40:30.715Z,11.90
2024-02-01T06:43:11.369Z,9.27
2024-02-01T06:46:02.118Z,12.93
2024-02-01T06:48:42.690Z,7.88
2024-02-01T06:51:23.377Z,8.73
2024-02-01T06:54:06.835Z,14.32
2024-02-01T06:56:50.926Z,9.52
2024-02-01T06:59:55.611Z,7.18
2024-02-01T07:02:48.859Z,4.72
2024-02-01T07:05:47.223Z,6.10
2024-02-01T07:08:14.853Z,4.80
2024-02-01T07:10:46.939Z,7.72
2024-02-01T07:13:45.775Z,8.02
2024-02-01T07:16:34.863Z,5.97
2024-02-01T07:19:11.950Z,8.70
2024-02-01T07:22:04.074Z,4.07
2024-02-01T07:24:40.065Z,6.72
2024-02-01T07:27:27.165Z,7.32
2024-02-01T07:30:13.869Z,4.72
2024-02-01T07:32:59.353Z,4.50
2024-02-01T07:35:45.320Z,4.28
2024-02-01T07:38:30.956Z,4.68
2024-02-01T07:41:16.233Z,5.35
2024-02-01T07:44:01.778Z,10.13
2024-02-01T07:46:47.179Z,4.80
2024-02-01T07:49:32.684Z,5.70
2024-02-01T07:52:18.344Z,5.05
2024-02-01T07:55:04.046Z,4.60
2024-02-01T07:57:37.501Z,5.63
2024-02-01T08:00:05.722Z,3.88
2024-02-01T08:02:51.260Z,5.22
2024-02-01T08:05:37.456Z,5.38
2024-02-01T08:08:05.370Z,3.95
2024-02-01T08:10:32.269Z,4.20
2024-02-01T08:13:08.607Z,4.30
2024-02-01T08:15:39.182Z,3.92
2024-02-01T08:18:12.299Z,3.78
2024-02-01T08:20:41.330Z,4.78
2024-02-01T08:23:09.801Z,3.80
2024-02-01T08:25:41.656Z,4.25
2024-02-01T08:28:12.120Z,4.35
2024-02-01T08:30:39.246Z,4.00
2024-02-01T08:33:06.354Z,6.00
2024-02-01T08:35:37.868Z,3.35
2024-02-01T08:38:05.890Z,5.68
2024-02-01T08:40:32.871Z,4.03
2024-02-01T08:42:59.904Z,4.32
2024-02-01T08:45:31.144Z,4.95
2024-02-01T08:48:04.576Z,3.75
2024-02-01T08:50:35.646Z,4.38
2024-02-01T08:53:03.101Z,4.18
2024-02-01T08:55:32.157Z,8.88
2024-02-01T08:58:09.397Z,3.85
2024-02-01T09:00:37.642Z,5.20
2024-02-01T09:03:07.267Z,4.28
2024-02-01T09:05:37.285Z,6.40
2024-02-01T09:08:06.316Z,9.82
2024-02-01T09:10:36.919Z,5.47
2024-02-01T09:13:03.929Z,5.82
2024-02-01T09:15:34.223Z,7.30
2024-02-01T09:18:01.266Z,5.55
2024-02-01T09:20:28.559Z,4.40
2024-02-01T09:22:56.777Z,5.72
2024-02-01T09:25:25.898Z,3.53
2024-02-01T09:27:54.710Z,5.03
2024-02-01T09:30:24.083Z,4.60
2024-02-01T09:32:52.539Z,4.25
2024-02-01T09:35:20.547Z,5.20
2024-02-01T09:37:52.435Z,5.30
2024-02-01T09:40:21.665Z,7.00
2024-02-01T09:42:50.286Z,7.40
2024-02-01T09:45:19.553Z,6.90
2024-02-01T09:47:49.432Z,6.68
2024-02-01T09:50:24.760Z,5.60
2024-02-01T09:52:52.654Z,3.53
2024-02-01T09:55:23.305Z,5.95
2024-02-01T09:57:53.490Z,6.90
2024-02-01T10:00:24.284Z,4.53
2024-02-01T10:02:58.110Z,4.57
2024-02-01T10:05:25.057Z,4.32
2024-02-01T10:07:55.933Z,5.25
2024-02-01T10:10:22.873Z,5.32
2024-02-01T10:12:53.001Z,5.15
2024-02-01T10:15:28.381Z,5.97
2024-02-01T10:17:55.479Z,7.43
2024-02-01T10:20:37.587Z,4.40
2024-02-01T10:23:05.832Z,4.22
2024-02-01T10:25:40.389Z,6.13
2024-02-01T10:28:09.401Z,5.65
2024-02-01T10:30:44.441Z,6.13
2024-02-01T10:33:13.217Z,8.43
2024-02-01T10:35:41.192Z,6.18
2024-02-01T10:38:14.447Z,4.30
2024-02-01T10:41:12.241Z,5.93
2024-02-01T10:43:49.592Z,4.85
2024-02-01T10:46:29.079Z,4.00
2024-02-01T10:49:20.115Z,4.47
2024-02-01T10:51:48.387Z,5.45
2024-02-01T10:54:16.863Z,4.50
2024-02-01T10:56:43.924Z,7.28
2024-02-01T10:59:12.839Z,2.58
2024-02-01T11:01:41.396Z,4.07
2024-02-01T11:04:11.243Z,5.07
2024-02-01T11:06:47.339Z,5.22
2024-02-01T11:09:23.210Z,6.93
2024-02-01T11:11:54.099Z,5.38
2024-02-01T11:14:33.487Z,4.20
2024-02-01T11:17:03.862Z,4.57
2024-02-01T11:19:38.983Z,4.57
2024-02-01T11:22:08.585Z,4.35
2024-02-01T11:24:38.438Z,5.18
2024-02-01T11:27:29.058Z,4.30
2024-02-01T11:30:02.341Z,7.85
2024-02-01T11:32:33.629Z,5.25
2024-02-01T11:35:01.094Z,5.70
2024-02-01T11:37:29.486Z,4.03
2024-02-01T11:39:57.148Z,5.85
2024-02-01T11:42:31.802Z,7.00
2024-02-01T11:45:05.535Z,7.18
2024-02-01T11:47:35.306Z,5.15
2024-02-01T11:50:03.010Z,4.47
2024-02-01T11:52:37.777Z,6.40
2024-02-01T11:55:07.958Z,4.93
2024-02-01T11:57:34.636Z,7.50
2024-02-01T12:00:13.688Z,2.90
2024-02-01T12:02:41.961Z,3.95
2024-02-01T12:05:08.953Z,3.28
2024-02-01T12:07:35.698Z,3.25
2024-02-01T12:10:11.745Z,5.40
2024-02-01T12:12:41.098Z,5.90
2024-02-01T12:15:08.861Z,7.80
2024-02-01T12:17:49.387Z,5.07
2024-02-01T12:20:17.386Z,5.18
2024-02-01T12:22:49.365Z,5.10
2024-02-01T12:25:24.089Z,8.32
2024-02-01T12:27:51.763Z,4.10
2024-02-01T12:30:24.794Z,3.80
2024-02-01T12:32:51.870Z,6.50
2024-02-01T12:35:19.861Z,5.05
2024-02-01T12:37:47.870Z,3.22
2024-02-01T12:40:16.062Z,5.13
2024-02-01T12:42:43.667Z,4.18
2024-02-01T12:45:19.905Z,2.95
2024-02-01T12:47:51.823Z,3.40
2024-02-01T12:50:19.815Z,2.33
2024-02-01T12:52:46.795Z,4.00
2024-02-01T12:55:14.329Z,3.00
2024-02-01T12:57:41.779Z,5.82
2024-02-01T13:00:12.064Z,5.70
2024-02-01T13:02:40.057Z,3.45
2024-02-01T13:05:10.723Z,5.13
2024-02-01T13:07:38.373Z,5.50
2024-02-01T13:10:14.208Z,4.47
2024-02-01T13:12:56.136Z,5.07
2024-02-01T13:15:28.237Z,5.38
2024-02-01T13:17:55.956Z,4.25
2024-02-01T13:20:23.434Z,7.32
2024-02-01T13:22:51.929Z,4.10
2024-02-01T13:25:22.494Z,4.25
2024-02-01T13:27:51.236Z,7.32
2024-02-01T13:30:20.454Z,5.05
2024-02-01T13:32:50.479Z,5.32
2024-02-01T13:35:18.262Z,4.15
2024-02-01T13:37:47.815Z,2.88
2024-02-01T13:40:18.907Z,4.63
2024-02-01T13:42:47.065Z,5.57
2024-02-01T13:45:14.742Z,6.60
2024-02-01T13:47:52.989Z,5.30
2024-02-01T13:50:22.613Z,3.67
2024-02-01T13:52:53.363Z,2.67
2024-02-01T13:55:20.066Z,3.83
2024-02-01T13:57:46.730Z,3.33
2024-02-01T14:00:16.826Z,6.75
2024-02-01T14:02:49.144Z,3.55
2024-02-01T14:05:17.317Z,3.67
2024-02-01T14:07:44.692Z,4.43
2024-02-01T14:10:12.419Z,5.18
2024-02-01T14:12:40.231Z,2.42
2024-02-01T14:15:07.848Z,4.15
2024-02-01T14:17:34.919Z,3.40
2024-02-01T14:20:03.802Z,4.55
2024-02-01T14:22:30.872Z,3.35
2024-02-01T14:24:57.638Z,4.15
2024-02-01T14:27:28.275Z,4.10
2024-02-01T14:29:55.075Z,3.83
2024-02-01T14:32:22.606Z,7.10
2024-02-01T14:34:51.764Z,7.20
2024-02-01T14:37:19.062Z,7.45
2024-02-01T14:39:48.334Z,4.82
2024-02-01T14:42:15.210Z,5.22
2024-02-01T14:44:42.704Z,3.40
2024-02-01T14:47:11.627Z,5.07
2024-02-01T14:49:38.599Z,4.05
2024-02-01T14:52:06.749Z,3.03
2024-02-01T14:54:34.053Z,4.95
2024-02-01T14:57:00.730Z,3.88
2024-02-01T14:59:29.351Z,5.63
2024-02-01T15:01:58.876Z,8.13
2024-02-01T15:04:30.588Z,3.08
2024-02-01T15:06:57.611Z,7.72
2024-02-01T15:09:26.502Z,2.83
2024-02-01T15:11:53.285Z,4.05
2024-02-01T15:14:19.941Z,6.32
2024-02-01T15:16:48.771Z,4.57
2024-02-01T15:19:15.952Z,4.68
2024-02-01T15:21:42.936Z,4.72
2024-02-01T15:24:15.951Z,4.60
2024-02-01T15:26:44.988Z,5.32
2024-02-01T15:29:14.003Z,10.68
2024-02-01T15:31:41.849Z,5.10
2024-02-01T15:34:09.784Z,3.28
2024-02-01T15:36:38.837Z,3.80
2024-02-01T15:39:25.820Z,3.15
2024-02-01T15:42:01.524Z,10.98
2024-02-01T15:44:28.554Z,4.90
2024-02-01T15:46:58.312Z,5.28
2024-02-01T15:49:28.836Z,2.65
2024-02-01T15:52:02.595Z,8.75
2024-02-01T15:54:32.085Z,5.00
2024-02-01T15:56:59.571Z,8.05
2024-02-01T15:59:26.406Z,4.45
2024-02-01T16:01:53.097Z,9.20
2024-02-01T16:04:19.849Z,4.85
2024-02-01T16:06:46.639Z,5.90
2024-02-01T16:09:14.307Z,3.08
2024-02-01T16:11:42.251Z,3.00
2024-02-01T16:14:14.447Z,7.57
2024-02-01T16:16:45.745Z,4.88
2024-02-01T16:19:36.002Z,7.72
2024-02-01T16:22:05.279Z,6.85
2024-02-01T16:24:42.837Z,4.50
2024-02-01T16:27:38.138Z,8.23
2024-02-01T16:30:45.211Z,6.20
2024-02-01T16:33:29.512Z,6.75
2024-02-01T16:36:03.935Z,4.78
2024-02-01T16:38:34.870Z,8.15
2024-02-01T16:41:02.521Z,8.25
2024-02-01T16:43:33.164Z,9.80
2024-02-01T16:45:59.977Z,4.60
2024-02-01T16:48:27.095Z,6.65
2024-02-01T16:50:54.341Z,9.57
2024-02-01T16:53:39.470Z,3.15
2024-02-01T16:56:09.956Z,5.27
2024-02-01T16:58:45.572Z,9.27
2024-02-01T17:01:21.967Z,9.63
2024-02-01T17:03:49.583Z,12.25
2024-02-01T17:06:17.153Z,6.70
2024-02-01T17:08:49.164Z,5.70
2024-02-01T17:11:30.460Z,9.73
2024-02-01T17:14:00.286Z,4.85
2024-02-01T17:16:56.876Z,12.15
2024-02-01T17:19:24.121Z,6.50
2024-02-01T17:21:52.006Z,7.00
2024-02-01T17:24:29.884Z,12.60
2024-02-01T17:27:01.590Z,13.77
2024-02-01T17:29:28.422Z,7.35
2024-02-01T17:31:58.307Z,10.90
2024-02-01T17:34:42.617Z,10.07
2024-02-01T17:37:36.542Z,11.73
2024-02-01T17:40:11.958Z,12.95
2024-02-01T17:42:39.984Z,10.10
2024-02-01T17:45:32.974Z,6.88
2024-02-01T17:48:21.283Z,8.48
2024-02-01T17:50:48.249Z,9.82
2024-02-01T17:53:16.722Z,11.70
2024-02-01T17:55:56.422Z,14.85
2024-02-01T17:58:40.640Z,9.80
2024-02-01T18:01:23.185Z,12.10
2024-02-01T18:03:54.333Z,11.55
2024-02-01T18:06:36.015Z,14.70
2024-02-01T18:09:03.500Z,13.65
2024-02-01T18:11:30.886Z,14.05
2024-02-01T18:13:57.976Z,13.88
2024-02-01T18:16:28.695Z,9.00
2024-02-01T18:19:06.328Z,9.65
2024-02-01T18:21:35.559Z,14.32
2024-02-01T18:24:04.000Z,11.57
2024-02-01T18:26:31.363Z,13.30
2024-02-01T18:28:58.367Z,13.23
2024-02-01T18:31:25.326Z,8.93
2024-02-01T18:33:54.582Z,13.18
2024-02-01T18:36:45.037Z,13.30
2024-02-01T18:39:21.350Z,13.77
2024-02-01T18:41:51.420Z,19.75
2024-02-01T18:44:22.736Z,18.67
2024-02-01T18:46:51.218Z,16.60
2024-02-01T18:49:22.199Z,11.63
2024-02-01T18:51:57.685Z,10.02
2024-02-01T18:54:28.887Z,10.15
2024-02-01T18:56:58.578Z,15.88
2024-02-01T18:59:31.196Z,19.05
2024-02-01T19:02:02.898Z,11.93
2024-02-01T19:04:31.908Z,10.75
2024-02-01T19:07:00.042Z,20.08
2024-02-01T19:09:42.331Z,13.65
2024-02-01T19:12:24.079Z,11.90
2024-02-01T19:14:51.374Z,13.15
2024-02-01T19:17:33.532Z,13.63
2024-02-01T19:20:08.227Z,15.32
2024-02-01T19:22:42.928Z,8.07
2024-02-01T19:25:12.659Z,17.08
2024-02-01T19:27:41.633Z,11.07
2024-02-01T19:30:21.207Z,13.35
2024-02-01T19:32:53.981Z,15.25
2024-02-01T19:35:31.509Z,12.15
2024-02-01T19:38:05.617Z,17.05
2024-02-01T19:40:32.497Z,18.23
2024-02-01T19:42:59.764Z,20.63
2024-02-01T19:45:26.758Z,12.10
2024-02-01T19:47:53.803Z,11.27
2024-02-01T19:50:20.556Z,14.63
2024-02-01T19:52:47.316Z,14.02
2024-02-01T19:55:14.023Z,19.80
2024-02-01T19:57:40.864Z,15.02
2024-02-01T20:00:08.209Z,18.58
2024-02-01T20:02:42.172Z,19.38
2024-02-01T20:05:09.115Z,13.13
2024-02-01T20:07:38.024Z,15.13
2024-02-01T20:10:05.747Z,20.05
2024-02-01T20:12:32.923Z,12.82
2024-02-01T20:14:59.961Z,22.48
2024-02-01T20:17:27.337Z,16.50
2024-02-01T20:19:58.554Z,11.88
2024-02-01T20:22:25.323Z,6.18
2024-02-01T20:24:52.671Z,11.82
2024-02-01T20:27:24.947Z,15.15
2024-02-01T20:30:07.719Z,13.27
2024-02-01T20:32:34.699Z,8.93
2024-02-01T20:35:01.635Z,17.23
2024-02-01T20:37:30.300Z,9.73
2024-02-01T20:39:58.076Z,11.40
2024-02-01T20:42:25.433Z,17.05
2024-02-01T20:44:54.547Z,14.32
2024-02-01T20:47:24.505Z,14.65
2024-02-01T20:49:51.587Z,15.30
2024-02-01T20:52:22.199Z,13.40
2024-02-01T20:55:03.922Z,18.05
2024-02-01T20:57:34.766Z,9.57
2024-02-01T21:00:03.274Z,8.27
2024-02-01T21:02:39.055Z,18.63
2024-02-01T21:05:11.813Z,16.85
2024-02-01T21:07:39.538Z,14.30
2024-02-01T21:10:24.467Z,14.90
2024-02-01T21:13:02.417Z,13.40
2024-02-01T21:15:31.268Z,22.65
2024-02-01T21:17:59.965Z,13.57
2024-02-01T21:20:34.554Z,16.42
2024-02-01T21:23:08.998Z,14.07
2024-02-01T21:25:35.739Z,18.40
2024-02-01T21:28:16.548Z,18.25
2024-02-01T21:30:48.178Z,10.02
2024-02-01T21:33:18.144Z,15.82
2024-02-01T21:35:57.401Z,17.92
2024-02-01T21:38:27.777Z,19.10
2024-02-01T21:40:56.007Z,13.82
2024-02-01T21:43:23.570Z,10.00
2024-02-01T21:45:51.213Z,10.88
2024-02-01T21:48:18.351Z,19.98
2024-02-01T21:50:48.631Z,18.25
2024-02-01T21:53:15.333Z,14.98
2024-02-01T21:55:43.685Z,16.10
2024-02-01T21:58:11.998Z,16.25
2024-02-01T22:00:39.009Z,16.60
2024-02-01T22:03:06.051Z,8.95
2024-02-01T22:05:33.466Z,16.15
2024-02-01T22:08:03.188Z,15.88
2024-02-01T22:10:29.918Z,12.40
2024-02-01T22:12:56.646Z,10.38
2024-02-01T22:15:23.983Z,12.40
2024-02-01T22:17:50.816Z,13.68
2024-02-01T22:20:17.667Z,11.25
2024-02-01T22:22:44.475Z,17.92
2024-02-01T22:25:11.456Z,16.45
2024-02-01T22:27:38.361Z,16.77
2024-02-01T22:30:07.349Z,19.55
2024-02-01T22:32:35.161Z,8.85
2024-02-01T22:35:02.509Z,15.10
2024-02-01T22:37:29.194Z,16.77
2024-02-01T22:39:56.218Z,6.95
2024-02-01T22:42:23.001Z,13.15
2024-02-01T22:44:49.837Z,11.30
2024-02-01T22:47:17.735Z,10.85
2024-02-01T22:49:44.826Z,14.80
2024-02-01T22:52:11.646Z,18.38
2024-02-01T22:54:38.580Z,11.82
2024-02-01T22:57:06.343Z,16.02
2024-02-01T22:59:33.451Z,12.30
2024-02-01T23:02:01.610Z,14.63
2024-02-01T23:04:28.364Z,11.88
2024-02-01T23:06:55.571Z,17.35
2024-02-01T23:09:22.660Z,15.43
2024-02-01T23:11:49.526Z,14.20
2024-02-01T23:14:16.484Z,16.23
2024-02-01T23:16:44.100Z,11.85
2024-02-01T23:19:11.142Z,14.98
2024-02-01T23:21:40.976Z,17.92
2024-02-01T23:24:08.286Z,17.23
2024-02-01T23:26:35.073Z,12.45
2024-02-01T23:29:03.631Z,17.67
2024-02-01T23:31:30.325Z,20.05
2024-02-01T23:33:57.278Z,11.27
2024-02-01T23:36:24.130Z,15.32
2024-02-01T23:38:51.380Z,6.88
2024-02-01T23:41:18.137Z,17.27
2024-02-01T23:43:45.129Z,14.88
2024-02-01T23:46:11.867Z,13.70
2024-02-01T23:48:38.748Z,10.65
2024-02-01T23:51:05.676Z,14.93
2024-02-01T23:53:34.697Z,15.68
2024-02-01T23:56:02.760Z,18.02
2024-02-01T23:58:30.039Z,12.52
